Poteet, TX (78065)

11:36 AM CST on March 03, 2015 (GMT -0600)
APRSWXNET Poteet TX US | Change Station
CLOSE
Current Station
Personal Weather Station
Location: Poteet, TX
Elevation: 610 ft
Nearby Weather Stations

Elev 610 ft 29.14 °N, 98.57 °W | Updated 36 minutes ago

Fog
Fog
50 °F
Feels Like 50 °F
N
0
Wind Variable Wind from North
Gusts 0.0 mph

Today
High -- | Low -- °F
--% Chance of Precip.
Yesterday
High -- | Low -- °F
Precip. -- in
6:57 AM 6:34 PM
Waxing Gibbous, 96% visible
Pressure 30.01 in
Visibility 2.5 miles
Clouds Overcast 300 ft
Dew Point 45 °F
Humidity 83%
Rainfall 0.05 in
Snow Depth Not available.
UV 2 out of 12
Pollen 8.90 out of 12
Air Quality Not available.
Flu Activity Not available.
METAR KPEZ 031715Z AUTO 00000KT 2 1/2SM BR OVC003 10/10 A3001 RMK AO2 T01000095

More Conditions Fewer Conditions

Pressure 30.01 in
Visibility 2.5 miles
Clouds Overcast 300 ft
Dew Point 45 °F
Humidity 83%
Rainfall 0.05 in
Snow Depth Not available.
UV 2 out of 12
Pollen 8.90 out of 12
Air Quality Not available.
Flu Activity Not available.
METAR KPEZ 031715Z AUTO 00000KT 2 1/2SM BR OVC003 10/10 A3001 RMK AO2 T01000095

More Conditions Fewer Conditions

10-Day Weather Forecast

Almanac

Astronomy

Mar. 03, 2015 Rise Set
Actual Time
Civil Twilight
Nautical Twilight
Astronomical Twilight
Moon
Length of Visible Light
Length of Day
Tomorrow will be .
, % of the Moon is Illuminated

Today's Extremes

State Highs State Lows

Community

WunderPhotos

Upload Photos

1,802,180 photos uploaded!

WunderBlogs® & News

Nearby

Air Quality

  Air Quality AQ Index Pollutant
Not available.

Snow Depth

Station Depth Elevation

Earthquake Activity

City Distance Mag. Time & Date
Minimum magnitude displayed is 2.5.

Coastal Water Temperatures

Place Temperature

Nearby Weather Stations